createdAt,value
2023-05-04T00:03:56.272Z,71.19
2023-05-04T00:08:59.323Z,71.29
2023-05-04T00:14:02.997Z,70.87
2023-05-04T00:19:05.954Z,70.13
2023-05-04T00:24:08.919Z,69.54
2023-05-04T00:29:12.095Z,68.92
2023-05-04T00:34:15.694Z,68.27
2023-05-04T00:39:18.697Z,67.82
2023-05-04T00:44:24.108Z,67.36
2023-05-04T00:49:27.341Z,66.91
2023-05-04T00:54:30.639Z,66.97
2023-05-04T01:01:35.047Z,66.31
2023-05-04T01:07:01.568Z,65.85
2023-05-04T01:12:56.758Z,65.73
2023-05-04T01:18:00.089Z,64.51
2023-05-04T01:23:04.065Z,64.35
2023-05-04T01:28:24.532Z,64.63
2023-05-04T01:33:29.047Z,64.22
2023-05-04T01:38:32.130Z,64.19
2023-05-04T01:43:36.567Z,64.12
2023-05-04T01:48:40.885Z,64.03
2023-05-04T01:53:43.862Z,64.03
2023-05-04T01:58:46.905Z,64.37
2023-05-04T02:03:50.056Z,64.28
2023-05-04T02:08:53.618Z,64.28
2023-05-04T02:13:56.574Z,63.97
2023-05-04T02:18:59.877Z,63.41
2023-05-04T02:24:05.084Z,63.03
2023-05-04T02:29:08.197Z,63.33
2023-05-04T02:34:11.241Z,63.40
2023-05-04T02:39:23.068Z,63.14
2023-05-04T02:44:25.999Z,63.75
2023-05-04T02:49:28.981Z,63.10
2023-05-04T02:54:32.035Z,63.63
2023-05-04T02:59:35.015Z,63.43
2023-05-04T03:04:38.233Z,63.25
2023-05-04T03:09:43.793Z,63.19
2023-05-04T03:14:47.790Z,63.49
2023-05-04T03:19:50.846Z,62.87
2023-05-04T03:24:54.269Z,62.45
2023-05-04T03:29:57.660Z,62.25
2023-05-04T03:35:03.844Z,61.87
2023-05-04T03:40:10.197Z,61.69
2023-05-04T03:45:13.254Z,61.73
2023-05-04T03:50:16.226Z,61.84
2023-05-04T03:55:19.375Z,61.20
2023-05-04T04:00:25.135Z,60.79
2023-05-04T04:05:33.037Z,60.78
2023-05-04T04:10:37.200Z,61.27
2023-05-04T04:15:41.239Z,61.14
2023-05-04T04:20:46.079Z,61.57
2023-05-04T04:25:49.010Z,61.54
2023-05-04T04:30:53.330Z,61.83
2023-05-04T04:35:56.733Z,62.23
2023-05-04T04:40:59.863Z,61.73
2023-05-04T04:46:04.224Z,61.83
2023-05-04T04:51:11.289Z,61.34
2023-05-04T04:56:14.305Z,60.70
2023-05-04T05:01:18.929Z,60.69
2023-05-04T05:06:22.289Z,60.07
2023-05-04T05:11:25.852Z,60.13
2023-05-04T05:16:28.916Z,59.51
2023-05-04T05:21:31.928Z,59.96
2023-05-04T05:26:35.498Z,59.58
2023-05-04T05:31:38.726Z,59.45
2023-05-04T05:36:41.799Z,59.62
2023-05-04T05:41:45.043Z,59.38
2023-05-04T05:46:48.713Z,59.62
2023-05-04T05:51:51.783Z,59.55
2023-05-04T05:56:54.792Z,59.36
2023-05-04T06:01:57.934Z,58.60
2023-05-04T06:07:00.913Z,58.40
2023-05-04T06:12:06.515Z,58.24
2023-05-04T06:17:10.174Z,58.18
2023-05-04T06:22:13.224Z,58.03
2023-05-04T06:27:16.428Z,58.27
2023-05-04T06:32:19.749Z,58.12
2023-05-04T06:37:23.413Z,58.30
2023-05-04T06:42:31.214Z,58.02
2023-05-04T06:47:38.227Z,58.13
2023-05-04T06:52:43.589Z,57.52
2023-05-04T06:57:46.532Z,57.24
2023-05-04T07:02:49.663Z,57.54
2023-05-04T07:07:53.530Z,57.74
2023-05-04T07:12:56.832Z,57.51
2023-05-04T07:18:00.150Z,57.33
2023-05-04T07:23:04.056Z,57.46
2023-05-04T07:28:07.362Z,57.39
2023-05-04T07:33:11.287Z,57.50
2023-05-04T07:38:14.418Z,56.61
2023-05-04T09:45:43.957Z,45.81
2023-05-04T09:50:54.739Z,46.11
2023-05-04T09:56:18.108Z,45.96
2023-05-04T10:01:21.427Z,46.05
2023-05-04T10:06:33.251Z,46.58
2023-05-04T10:11:37.652Z,46.55
2023-05-04T10:17:02.107Z,45.70
2023-05-04T10:22:33.393Z,44.94
2023-05-04T10:27:57.387Z,43.55
2023-05-04T10:33:02.694Z,43.72
2023-05-04T10:38:06.584Z,44.37
2023-05-04T10:43:13.250Z,43.64
2023-05-04T10:48:16.978Z,44.04
2023-05-04T10:53:34.049Z,45.17
2023-05-04T10:58:37.098Z,45.13
2023-05-04T11:03:43.336Z,44.80
2023-05-04T11:08:49.342Z,45.08
2023-05-04T11:13:52.600Z,44.07
2023-05-04T11:19:09.933Z,41.99
2023-05-04T11:24:13.826Z,41.77
2023-05-04T11:29:16.876Z,41.11
2023-05-04T11:34:21.149Z,39.33
2023-05-04T11:39:31.904Z,39.57
2023-05-04T11:44:37.009Z,39.42
2023-05-04T11:49:40.212Z,39.41
2023-05-04T11:54:43.204Z,38.93
2023-05-04T11:59:49.668Z,38.47
2023-05-04T12:04:53.146Z,38.77
2023-05-04T12:09:56.236Z,38.40
2023-05-04T12:14:59.322Z,38.29
2023-05-04T12:20:03.220Z,37.87
2023-05-04T12:25:07.585Z,36.99
2023-05-04T12:30:11.666Z,36.80
2023-05-04T12:35:14.845Z,35.17
2023-05-04T12:40:28.151Z,35.05
2023-05-04T12:45:32.091Z,35.18
2023-05-04T12:50:36.027Z,35.09
2023-05-04T12:55:39.283Z,34.41
2023-05-04T13:00:45.980Z,32.69
2023-05-04T13:05:49.954Z,32.29
2023-05-04T13:10:53.155Z,32.31
2023-05-04T13:15:56.679Z,33.07
2023-05-04T13:20:59.900Z,32.24
2023-05-04T13:26:03.441Z,32.48
2023-05-04T13:31:06.493Z,32.51
2023-05-04T13:36:09.643Z,31.74
2023-05-04T13:41:12.998Z,31.86
2023-05-04T13:46:16.302Z,31.90
2023-05-04T13:51:20.076Z,32.18
2023-05-04T13:56:23.410Z,30.89
2023-05-04T14:01:31.602Z,30.48
2023-05-04T14:06:35.018Z,31.25
2023-05-04T14:13:17.050Z,30.80
2023-05-04T14:18:20.134Z,31.28
2023-05-04T14:23:23.809Z,32.54
2023-05-04T14:28:26.938Z,31.82
2023-05-04T14:33:32.822Z,32.06
2023-05-04T14:38:36.263Z,32.44
2023-05-04T14:43:39.405Z,33.17
2023-05-04T14:48:42.541Z,33.63
2023-05-04T14:53:47.958Z,33.35
2023-05-04T14:58:50.947Z,34.69
2023-05-04T15:09:58.047Z,34.46
2023-05-04T15:15:01.371Z,35.65
2023-05-04T15:20:06.405Z,37.25
2023-05-04T15:25:10.197Z,37.68
2023-05-04T15:30:13.705Z,36.06
2023-05-04T15:35:17.004Z,34.52
2023-05-04T15:40:20.071Z,35.25
2023-05-04T15:45:23.159Z,35.31
2023-05-04T15:50:26.916Z,34.87
2023-05-04T15:55:29.968Z,34.59
2023-05-04T16:00:34.679Z,33.45
2023-05-04T16:05:37.925Z,33.48
2023-05-04T16:10:41.588Z,32.33
2023-05-04T16:15:44.893Z,31.55
2023-05-04T16:20:48.709Z,31.36
2023-05-04T16:25:51.930Z,31.12
2023-05-04T16:30:55.018Z,31.76
2023-05-04T16:35:58.273Z,31.76
2023-05-04T16:41:01.362Z,32.55
2023-05-04T16:46:04.938Z,32.49
2023-05-04T16:51:12.086Z,33.47
2023-05-04T16:56:19.607Z,33.82
2023-05-04T17:01:22.735Z,33.63
2023-05-04T17:06:26.987Z,33.64
2023-05-04T17:11:32.176Z,34.45
2023-05-04T17:16:36.097Z,34.18
2023-05-04T17:21:39.666Z,34.09
2023-05-04T17:26:54.180Z,34.72
2023-05-04T17:31:57.242Z,35.52
2023-05-04T17:37:00.867Z,36.07
2023-05-04T17:42:04.327Z,37.00
2023-05-04T17:47:08.032Z,37.45
2023-05-04T17:52:13.083Z,37.77
2023-05-04T17:57:27.082Z,39.14
2023-05-04T18:02:31.852Z,39.70
2023-05-04T18:07:35.488Z,41.78
2023-05-04T18:12:38.719Z,41.76
2023-05-04T18:17:42.128Z,41.06
2023-05-04T18:22:45.579Z,41.85
2023-05-04T18:27:48.679Z,42.11
2023-05-04T18:32:51.687Z,41.81
2023-05-04T18:37:54.734Z,42.84
2023-05-04T18:42:57.766Z,44.51
2023-05-04T18:48:00.813Z,44.54
2023-05-04T18:53:05.818Z,43.24
2023-05-04T18:58:08.868Z,43.91
2023-05-04T19:03:11.916Z,45.37
2023-05-04T19:08:14.991Z,46.39
2023-05-04T19:13:18.260Z,45.35
2023-05-04T19:18:26.174Z,45.16
2023-05-04T19:23:29.152Z,45.70
2023-05-04T19:28:32.257Z,45.48
2023-05-04T19:33:47.274Z,45.38
2023-05-04T19:38:51.500Z,46.42
2023-05-04T19:43:54.492Z,46.89
2023-05-04T19:48:57.680Z,47.66
2023-05-04T19:54:00.775Z,48.63
2023-05-04T19:59:03.851Z,48.77
2023-05-04T20:04:08.499Z,48.89
2023-05-04T20:09:11.692Z,49.45
2023-05-04T20:14:14.731Z,49.92
2023-05-04T20:19:18.692Z,50.49
2023-05-04T20:24:22.432Z,51.54
2023-05-04T20:29:25.606Z,51.70
2023-05-04T20:34:28.810Z,52.00
2023-05-04T20:39:32.563Z,52.16
2023-05-04T20:44:35.530Z,52.36
2023-05-04T20:49:38.729Z,52.95
2023-05-04T20:54:42.150Z,53.03
2023-05-04T20:59:45.266Z,53.44
2023-05-04T21:04:48.673Z,54.07
2023-05-04T21:09:56.807Z,54.46
2023-05-04T21:14:59.849Z,54.93
2023-05-04T21:20:03.414Z,55.19
2023-05-04T21:25:07.192Z,55.06
2023-05-04T21:30:11.384Z,54.71
2023-05-04T21:35:27.506Z,54.57
2023-05-04T21:40:30.751Z,54.74
2023-05-04T21:45:33.919Z,54.70
2023-05-04T21:50:37.049Z,54.61
2023-05-04T21:55:40.014Z,55.05
2023-05-04T22:00:43.794Z,55.33
2023-05-04T22:05:57.944Z,55.44
2023-05-04T22:11:01.309Z,55.51
2023-05-04T22:16:04.746Z,55.86
2023-05-04T22:21:07.882Z,55.87
2023-05-04T22:26:10.984Z,55.80
2023-05-04T22:31:14.136Z,55.64
2023-05-04T22:36:17.240Z,55.18
2023-05-04T22:41:21.222Z,55.12
2023-05-04T22:46:25.774Z,55.17
2023-05-04T22:51:28.910Z,55.79
2023-05-04T22:56:33.258Z,55.73
2023-05-04T23:01:42.729Z,55.71
2023-05-04T23:06:45.774Z,55.65
2023-05-04T23:11:49.074Z,55.70
2023-05-04T23:16:52.073Z,56.32
2023-05-04T23:21:55.438Z,56.39
2023-05-04T23:26:59.001Z,56.15
2023-05-04T23:32:02.186Z,56.17
2023-05-04T23:37:05.434Z,56.61
2023-05-04T23:42:09.087Z,56.69
2023-05-04T23:47:12.103Z,56.50
2023-05-04T23:52:15.155Z,56.98
2023-05-04T23:57:18.186Z,57.30
